createdAt,value
2023-02-23T00:00:09.000Z,0
2023-02-23T00:01:33.209Z,0
2023-02-23T00:02:48.678Z,0
2023-02-23T00:03:56.000Z,0
2023-02-23T00:05:18.859Z,0
2023-02-23T00:06:26.000Z,0
2023-02-23T00:07:43.000Z,0
2023-02-23T00:08:58.000Z,0
2023-02-23T00:10:21.942Z,0
2023-02-23T00:11:30.000Z,0
2023-02-23T00:12:46.000Z,0
2023-02-23T00:14:10.254Z,0
2023-02-23T00:15:26.695Z,0
2023-02-23T00:16:42.642Z,0
2023-02-23T00:17:59.081Z,0
2023-02-23T00:19:15.277Z,0
2023-02-23T00:20:23.000Z,0
2023-02-23T00:21:47.663Z,0
2023-02-23T00:22:56.000Z,0
2023-02-23T00:24:19.805Z,0
2023-02-23T00:25:28.000Z,0
2023-02-23T00:26:44.000Z,0
2023-02-23T00:28:07.402Z,0
2023-02-23T00:29:16.000Z,0
2023-02-23T00:30:32.000Z,0
2023-02-23T00:31:55.010Z,0
2023-02-23T00:33:02.000Z,0
2023-02-23T00:34:26.415Z,0
2023-02-23T00:35:35.000Z,0
2023-02-23T00:36:59.059Z,0
2023-02-23T00:38:15.239Z,0
2023-02-23T00:39:31.440Z,0
2023-02-23T00:40:47.383Z,0
2023-02-23T00:42:03.834Z,0
2023-02-23T00:42:55.000Z,0
2023-02-23T00:43:19.770Z,0
2023-02-23T00:44:28.000Z,0
2023-02-23T00:45:52.157Z,0
2023-02-23T00:47:00.000Z,0
2023-02-23T00:49:39.033Z,0
2023-02-23T00:50:47.000Z,0
2023-02-23T00:52:11.170Z,0
2023-02-23T00:53:27.613Z,0
2023-02-23T00:54:36.000Z,0
2023-02-23T00:55:52.000Z,0
2023-02-23T00:57:15.944Z,0
2023-02-23T00:58:32.382Z,0
2023-02-23T00:59:41.000Z,0
2023-02-23T01:01:04.781Z,0
2023-02-23T01:02:20.719Z,0
2023-02-23T01:03:37.163Z,0
2023-02-23T01:04:52.385Z,0
2023-02-23T01:06:08.563Z,0
2023-02-23T01:07:24.769Z,0
2023-02-23T01:08:40.950Z,0
2023-02-23T01:09:56.897Z,0
2023-02-23T01:11:13.342Z,0
2023-02-23T01:12:29.542Z,0
2023-02-23T01:13:45.479Z,0
2023-02-23T01:15:01.928Z,0
2023-02-23T01:16:18.123Z,0
2023-02-23T01:17:34.060Z,0
2023-02-23T01:18:43.000Z,0
2023-02-23T01:20:06.691Z,0
2023-02-23T01:21:21.667Z,0
2023-02-23T01:22:37.131Z,0
2023-02-23T01:23:52.357Z,0
2023-02-23T01:25:07.548Z,0
2023-02-23T01:26:16.000Z,0
2023-02-23T01:27:32.000Z,0
2023-02-23T01:28:56.141Z,0
2023-02-23T01:30:12.083Z,0
2023-02-23T01:31:21.000Z,0
2023-02-23T01:32:44.470Z,0
2023-02-23T01:34:00.664Z,0
2023-02-23T01:35:09.000Z,0
2023-02-23T01:36:33.302Z,0
2023-02-23T01:37:49.245Z,0
2023-02-23T01:39:05.679Z,0
2023-02-23T01:40:21.889Z,0
2023-02-23T01:41:37.094Z,0
2023-02-23T01:42:53.037Z,0
2023-02-23T01:44:01.000Z,0
2023-02-23T01:45:25.424Z,0
2023-02-23T01:46:34.000Z,0
2023-02-23T01:47:58.065Z,0
2023-02-23T01:49:14.251Z,0
2023-02-23T01:50:29.471Z,0
2023-02-23T01:51:37.000Z,0
2023-02-23T01:53:00.630Z,0
2023-02-23T01:54:08.000Z,0
2023-02-23T01:55:31.060Z,0
2023-02-23T01:56:47.502Z,0
2023-02-23T01:58:03.447Z,0
2023-02-23T01:59:12.000Z,0
2023-02-23T02:00:36.091Z,0
2023-02-23T02:01:44.000Z,0
2023-02-23T02:03:00.000Z,0
2023-02-23T02:04:24.666Z,0
2023-02-23T02:05:33.000Z,0
2023-02-23T02:06:57.051Z,0
2023-02-23T02:08:13.255Z,0
2023-02-23T02:09:29.190Z,0
2023-02-23T02:10:38.000Z,0
2023-02-23T02:11:53.000Z,0
2023-02-23T02:13:16.787Z,0
2023-02-23T02:14:25.000Z,0
2023-02-23T02:15:49.419Z,0
2023-02-23T02:16:58.000Z,0
2023-02-23T02:18:21.562Z,0
2023-02-23T02:19:30.000Z,0
2023-02-23T02:20:54.196Z,0
2023-02-23T02:22:01.000Z,0
2023-02-23T02:23:24.380Z,0
2023-02-23T02:24:33.000Z,0
2023-02-23T02:25:55.793Z,0
2023-02-23T02:27:03.000Z,0
2023-02-23T02:28:19.000Z,0
2023-02-23T02:29:43.392Z,0
2023-02-23T02:30:59.836Z,0
2023-02-23T02:32:16.024Z,0
2023-02-23T02:33:32.219Z,0
2023-02-23T02:34:48.412Z,0
2023-02-23T02:36:04.361Z,0
2023-02-23T02:37:13.000Z,0
2023-02-23T02:38:36.993Z,0
2023-02-23T02:39:45.000Z,0
2023-02-23T02:41:09.136Z,0
2023-02-23T02:42:25.603Z,0
2023-02-23T02:43:40.540Z,0
2023-02-23T02:44:56.734Z,0
2023-02-23T02:46:13.179Z,0
2023-02-23T02:47:29.121Z,0
2023-02-23T02:48:45.314Z,0
2023-02-23T02:50:01.508Z,0
2023-02-23T02:51:17.702Z,0
2023-02-23T02:52:25.000Z,0
2023-02-23T02:53:48.374Z,0
2023-02-23T02:55:04.572Z,0
2023-02-23T02:56:13.000Z,0
2023-02-23T02:57:29.000Z,0
2023-02-23T02:58:52.182Z,0
2023-02-23T03:00:07.144Z,0
2023-02-23T03:01:23.591Z,0
2023-02-23T03:02:32.000Z,0
2023-02-23T03:03:48.000Z,0
2023-02-23T03:05:11.918Z,0
2023-02-23T03:06:28.354Z,0
2023-02-23T03:07:37.000Z,0
2023-02-23T03:09:00.755Z,0
2023-02-23T03:10:09.000Z,0
2023-02-23T03:11:09.000Z,0
2023-02-23T03:11:32.886Z,0
2023-02-23T03:12:41.000Z,0
2023-02-23T03:14:05.519Z,0
2023-02-23T03:15:21.467Z,0
2023-02-23T03:17:45.000Z,0
2023-02-23T03:18:47.000Z,0
2023-02-23T03:19:01.000Z,0
2023-02-23T03:20:25.502Z,0
2023-02-23T03:21:41.453Z,0
2023-02-23T03:22:50.000Z,0
2023-02-23T03:25:29.060Z,0
2023-02-23T03:26:44.519Z,0
2023-02-23T03:28:00.463Z,0
2023-02-23T03:29:15.684Z,0
2023-02-23T03:30:23.000Z,0
2023-02-23T03:31:47.335Z,0
2023-02-23T03:33:03.536Z,0
2023-02-23T03:34:12.000Z,0
2023-02-23T03:35:35.670Z,0
2023-02-23T03:36:51.863Z,0
2023-02-23T03:38:08.057Z,0
2023-02-23T03:39:24.507Z,0
2023-02-23T03:40:40.444Z,0
2023-02-23T03:41:56.637Z,0
2023-02-23T03:43:12.831Z,0
2023-02-23T03:44:29.026Z,0
2023-02-23T03:45:45.219Z,0
2023-02-23T03:46:54.000Z,0
2023-02-23T03:48:16.862Z,0
2023-02-23T03:49:25.000Z,0
2023-02-23T03:50:49.011Z,0
2023-02-23T03:52:05.452Z,0
2023-02-23T03:52:57.000Z,0
2023-02-23T03:53:21.398Z,0
2023-02-23T03:54:37.852Z,0
2023-02-23T03:55:52.812Z,0
2023-02-23T03:57:08.270Z,0
2023-02-23T03:59:33.000Z,0
2023-02-23T04:00:48.000Z,0
2023-02-23T04:02:10.840Z,0
2023-02-23T04:03:19.000Z,0
2023-02-23T04:04:43.226Z,0
2023-02-23T04:05:59.420Z,0
2023-02-23T04:07:15.614Z,0
2023-02-23T04:08:31.807Z,0
2023-02-23T04:09:48.245Z,0
2023-02-23T04:10:56.000Z,0
2023-02-23T04:12:20.388Z,0
2023-02-23T04:13:29.000Z,0
2023-02-23T04:14:52.775Z,0
2023-02-23T04:16:09.213Z,0
2023-02-23T04:17:25.431Z,0
2023-02-23T04:18:40.372Z,0
2023-02-23T04:19:56.566Z,0
2023-02-23T04:21:12.760Z,0
2023-02-23T04:22:28.954Z,0
2023-02-23T04:23:36.000Z,0
2023-02-23T04:25:00.623Z,0
2023-02-23T04:26:09.000Z,0
2023-02-23T04:27:24.000Z,0
2023-02-23T04:28:39.000Z,0
2023-02-23T04:29:54.000Z,0
2023-02-23T04:31:17.418Z,0
2023-02-23T04:32:33.612Z,0
2023-02-23T04:33:49.806Z,0
2023-02-23T04:35:06.000Z,0
2023-02-23T04:36:14.000Z,0
2023-02-23T04:37:31.000Z,0
2023-02-23T04:38:54.581Z,0
2023-02-23T04:40:03.000Z,0
2023-02-23T04:41:19.000Z,0
2023-02-23T04:42:43.161Z,0
2023-02-23T04:43:59.355Z,0
2023-02-23T04:45:15.548Z,0
2023-02-23T04:46:31.989Z,0
2023-02-23T04:47:47.206Z,0
2023-02-23T04:48:55.000Z,0
2023-02-23T04:50:19.340Z,0
2023-02-23T04:51:28.000Z,0
2023-02-23T04:52:51.727Z,0
2023-02-23T04:54:00.000Z,0
2023-02-23T04:55:24.379Z,0
2023-02-23T04:56:32.000Z,0
2023-02-23T04:57:54.545Z,0
2023-02-23T04:59:10.738Z,0
2023-02-23T05:00:26.932Z,0
2023-02-23T05:01:34.000Z,0
2023-02-23T05:02:57.362Z,0
2023-02-23T05:04:06.000Z,0
2023-02-23T05:05:29.749Z,0
2023-02-23T05:06:45.943Z,0
2023-02-23T05:08:02.379Z,0
2023-02-23T05:09:11.000Z,0
2023-02-23T05:10:27.000Z,0
2023-02-23T05:11:28.000Z,0
2023-02-23T05:11:50.962Z,0
2023-02-23T05:13:06.911Z,0
2023-02-23T05:14:23.350Z,0
2023-02-23T05:15:39.300Z,0
2023-02-23T05:18:11.933Z,0
2023-02-23T05:19:26.897Z,0
2023-02-23T05:20:43.090Z,0
2023-02-23T05:21:52.000Z,0
2023-02-23T05:23:08.000Z,0
2023-02-23T05:24:24.000Z,0
2023-02-23T05:25:48.121Z,0
2023-02-23T05:27:04.322Z,0
2023-02-23T05:28:19.279Z,0
2023-02-23T05:29:34.489Z,0
2023-02-23T05:30:49.710Z,0
2023-02-23T05:31:57.000Z,0
2023-02-23T05:33:21.113Z,0
2023-02-23T05:34:37.307Z,0
2023-02-23T05:35:53.749Z,0
2023-02-23T05:37:09.950Z,0
2023-02-23T05:38:26.136Z,0
2023-02-23T05:39:42.081Z,0
2023-02-23T05:40:50.000Z,0
2023-02-23T05:42:14.720Z,0
2023-02-23T05:43:30.662Z,0
2023-02-23T05:44:39.000Z,0
2023-02-23T05:46:03.050Z,4
2023-02-23T05:47:19.243Z,8
2023-02-23T05:48:27.000Z,8
2023-02-23T05:49:50.647Z,8
2023-02-23T05:51:06.840Z,8
2023-02-23T05:52:23.288Z,8
2023-02-23T05:53:31.000Z,8
2023-02-23T05:54:48.000Z,8
2023-02-23T05:56:11.616Z,8
2023-02-23T05:57:27.084Z,8
2023-02-23T05:58:42.046Z,8
2023-02-23T05:59:50.000Z,8
2023-02-23T06:01:14.432Z,8
2023-02-23T06:02:22.000Z,8
2023-02-23T06:03:37.000Z,8
2023-02-23T06:04:53.000Z,8
2023-02-23T06:06:17.502Z,8
2023-02-23T06:07:33.443Z,8
2023-02-23T06:08:49.637Z,8
2023-02-23T06:10:05.831Z,8
2023-02-23T06:11:22.269Z,8
2023-02-23T06:12:30.000Z,8
2023-02-23T06:13:47.000Z,8
2023-02-23T06:15:10.606Z,12
2023-02-23T06:16:19.000Z,12
2023-02-23T06:17:35.000Z,16
2023-02-23T06:18:59.187Z,20
2023-02-23T06:20:14.645Z,20
2023-02-23T06:21:30.591Z,20
2023-02-23T06:22:39.000Z,28
2023-02-23T06:24:02.978Z,32
2023-02-23T06:25:19.172Z,28
2023-02-23T06:26:35.614Z,32
2023-02-23T06:27:51.559Z,32
2023-02-23T06:29:07.045Z,32
2023-02-23T06:30:21.989Z,36
2023-02-23T06:31:30.000Z,40
2023-02-23T06:32:46.000Z,40
2023-02-23T06:34:08.862Z,48
2023-02-23T06:35:17.000Z,56
2023-02-23T06:36:41.001Z,60
2023-02-23T06:37:57.195Z,64
2023-02-23T06:39:13.388Z,72
2023-02-23T06:40:29.824Z,80
2023-02-23T06:41:46.025Z,72
2023-02-23T06:43:01.970Z,84
2023-02-23T06:44:18.163Z,96
2023-02-23T06:45:27.000Z,104
2023-02-23T06:46:50.550Z,104
2023-02-23T06:47:59.000Z,104
2023-02-23T06:49:22.937Z,104
2023-02-23T06:50:38.147Z,108
2023-02-23T06:51:54.341Z,116
2023-02-23T06:53:10.535Z,112
2023-02-23T06:54:26.728Z,112
2023-02-23T06:55:35.000Z,108
2023-02-23T06:56:59.116Z,112
2023-02-23T06:58:15.561Z,120
2023-02-23T06:59:31.504Z,132
2023-02-23T07:00:40.000Z,144
2023-02-23T07:02:04.140Z,160
2023-02-23T07:03:20.337Z,180
2023-02-23T07:04:36.522Z,184
2023-02-23T07:05:52.472Z,196
2023-02-23T07:07:07.948Z,204
2023-02-23T07:08:01.000Z,248
2023-02-23T07:08:16.000Z,216
2023-02-23T07:09:40.315Z,220
2023-02-23T07:10:56.264Z,224
2023-02-23T07:12:05.000Z,236
2023-02-23T07:14:43.871Z,260
2023-02-23T07:15:59.081Z,284
2023-02-23T07:17:07.000Z,324
2023-02-23T07:18:30.495Z,376
2023-02-23T07:19:45.705Z,404
2023-02-23T07:20:54.000Z,432
2023-02-23T07:22:10.000Z,500
2023-02-23T07:23:34.285Z,556
2023-02-23T07:24:43.000Z,612
2023-02-23T07:26:06.673Z,684
2023-02-23T07:27:22.866Z,760
2023-02-23T07:28:31.000Z,872
2023-02-23T07:29:55.254Z,964
2023-02-23T07:31:11.590Z,1008
2023-02-23T07:32:27.784Z,1036
2023-02-23T07:33:43.978Z,1092
2023-02-23T07:35:00.172Z,1124
2023-02-23T07:36:08.000Z,1148
2023-02-23T07:37:31.576Z,1252
2023-02-23T07:38:40.000Z,1308
2023-02-23T07:40:03.963Z,1332
2023-02-23T07:41:20.400Z,1288
2023-02-23T07:42:29.000Z,1224
2023-02-23T07:43:52.787Z,1232
2023-02-23T07:45:08.885Z,1284
2023-02-23T07:46:24.353Z,1300
2023-02-23T07:47:32.000Z,1296
2023-02-23T07:48:55.754Z,1328
2023-02-23T07:50:10.977Z,1356
2023-02-23T07:51:26.913Z,1356
2023-02-23T07:52:43.356Z,1376
2023-02-23T07:53:59.301Z,1428
2023-02-23T07:55:15.494Z,1380
2023-02-23T07:56:31.688Z,1420
2023-02-23T07:57:48.139Z,1440
2023-02-23T07:58:56.000Z,1468
2023-02-23T08:00:20.269Z,1552
2023-02-23T08:01:36.463Z,1604
2023-02-23T08:02:52.656Z,1556
2023-02-23T08:04:01.000Z,1576
2023-02-23T08:05:25.044Z,1580
2023-02-23T08:06:32.000Z,1628
2023-02-23T08:07:56.447Z,1804
2023-02-23T08:09:12.641Z,1844
2023-02-23T08:10:28.834Z,2000
2023-02-23T08:11:45.277Z,2144
2023-02-23T08:13:01.223Z,2048
2023-02-23T08:14:17.416Z,2040
2023-02-23T08:15:25.000Z,1960
2023-02-23T08:16:40.000Z,1988
2023-02-23T08:18:03.067Z,2016
2023-02-23T08:19:19.656Z,1936
2023-02-23T08:20:35.577Z,1924
2023-02-23T08:21:51.771Z,1888
2023-02-23T08:23:07.964Z,2028
2023-02-23T08:24:16.000Z,1976
2023-02-23T08:25:40.352Z,2092
2023-02-23T08:26:56.545Z,2236
2023-02-23T08:28:12.990Z,1924
2023-02-23T08:29:28.934Z,1996
2023-02-23T08:30:45.127Z,2020
2023-02-23T08:32:01.321Z,1996
2023-02-23T08:33:10.000Z,2108
2023-02-23T08:34:33.708Z,2112
2023-02-23T08:35:49.168Z,2236
2023-02-23T08:37:05.358Z,2680
2023-02-23T08:38:21.305Z,3260
2023-02-23T08:39:36.520Z,3320
2023-02-23T08:40:45.000Z,3656
2023-02-23T08:42:08.907Z,3428
2023-02-23T08:43:25.102Z,3120
2023-02-23T08:44:33.000Z,3104
2023-02-23T08:45:56.519Z,3516
2023-02-23T08:47:11.730Z,3424
2023-02-23T08:48:27.925Z,3556
2023-02-23T08:49:35.000Z,3704
2023-02-23T08:50:59.342Z,4640
2023-02-23T08:52:07.000Z,4808
2023-02-23T08:53:30.748Z,3860
2023-02-23T08:54:46.943Z,4364
2023-02-23T08:56:03.138Z,5104
2023-02-23T08:57:19.333Z,4260
2023-02-23T08:58:35.529Z,2924
2023-02-23T08:59:51.723Z,2800
2023-02-23T09:01:07.919Z,4028
2023-02-23T09:02:24.361Z,4272
2023-02-23T09:03:40.309Z,3088
2023-02-23T09:04:56.503Z,2776
2023-02-23T09:06:12.699Z,2352
2023-02-23T09:07:28.894Z,2372
2023-02-23T09:08:44.348Z,2352
2023-02-23T09:10:00.300Z,3136
2023-02-23T09:11:16.496Z,3336
2023-02-23T09:12:25.000Z,2612
2023-02-23T09:13:49.147Z,3672
2023-02-23T09:15:05.082Z,4544
2023-02-23T09:16:20.304Z,4596
2023-02-23T09:17:35.516Z,4400
2023-02-23T09:18:44.000Z,4648
2023-02-23T09:20:06.932Z,5556
2023-02-23T09:21:22.144Z,5816
2023-02-23T09:22:38.340Z,5536
2023-02-23T09:23:54.785Z,4844
2023-02-23T09:25:10.731Z,4532
2023-02-23T09:26:26.926Z,4292
2023-02-23T09:27:43.367Z,4388
2023-02-23T09:28:59.558Z,4516
2023-02-23T09:30:15.513Z,5412
2023-02-23T09:31:24.000Z,6332
2023-02-23T09:32:40.000Z,6136
2023-02-23T09:33:56.000Z,5688
2023-02-23T09:35:20.295Z,4908
2023-02-23T09:36:29.000Z,4384
2023-02-23T09:37:51.954Z,2884
2023-02-23T09:39:00.000Z,2244
2023-02-23T09:40:24.339Z,2040
2023-02-23T09:41:32.000Z,2228
2023-02-23T09:42:56.730Z,2400
2023-02-23T09:44:12.679Z,2380
2023-02-23T09:45:29.130Z,2972
2023-02-23T09:46:44.345Z,2804
2023-02-23T09:47:59.308Z,2664
2023-02-23T09:49:08.000Z,2376
2023-02-23T09:50:30.970Z,2936
2023-02-23T09:51:47.164Z,3468
2023-02-23T09:53:02.374Z,3404
2023-02-23T09:54:18.572Z,3472
2023-02-23T09:55:34.795Z,4112
2023-02-23T09:56:50.719Z,4228
2023-02-23T09:58:06.914Z,4832
2023-02-23T09:59:15.000Z,6120
2023-02-23T10:00:31.000Z,6984
2023-02-23T10:01:48.000Z,6440
2023-02-23T10:03:11.942Z,5852
2023-02-23T10:04:20.000Z,6160
2023-02-23T10:07:00.534Z,5164
2023-02-23T10:08:16.478Z,5720
2023-02-23T10:09:25.000Z,5452
2023-02-23T10:10:40.000Z,3776
2023-02-23T10:12:04.341Z,3016
2023-02-23T10:13:12.000Z,2432
2023-02-23T10:14:36.714Z,2688
2023-02-23T10:15:52.912Z,3204
2023-02-23T10:17:01.000Z,4280
2023-02-23T10:18:25.304Z,6120
2023-02-23T10:19:41.494Z,6928
2023-02-23T10:21:14.166Z,6504
2023-02-23T10:22:13.909Z,4852
2023-02-23T10:23:29.840Z,4240
2023-02-23T10:24:46.277Z,3832
2023-02-23T10:26:02.231Z,3444
2023-02-23T10:27:10.000Z,3340
2023-02-23T10:28:26.000Z,3568
2023-02-23T10:29:49.833Z,3956
2023-02-23T10:31:06.271Z,5012
2023-02-23T10:32:22.469Z,5856
2023-02-23T10:33:38.419Z,4804
2023-02-23T10:34:54.615Z,5212
2023-02-23T10:36:10.810Z,5140
2023-02-23T10:37:27.250Z,4724
2023-02-23T10:38:35.000Z,4668
2023-02-23T10:39:52.000Z,4528
2023-02-23T10:41:08.000Z,4644
2023-02-23T10:42:31.788Z,4800
2023-02-23T10:43:46.999Z,4992
2023-02-23T10:45:03.449Z,5460
2023-02-23T10:46:19.391Z,6096
2023-02-23T10:47:28.000Z,6576
2023-02-23T10:48:51.782Z,6644
2023-02-23T10:50:07.978Z,6812
2023-02-23T10:51:24.173Z,7628
2023-02-23T10:52:40.369Z,8060
2023-02-23T10:53:49.000Z,8060
2023-02-23T10:55:05.000Z,7928
2023-02-23T10:56:28.955Z,7964
2023-02-23T10:57:45.401Z,7952
2023-02-23T10:59:01.346Z,8604
2023-02-23T11:00:17.786Z,8612
2023-02-23T11:01:25.000Z,8396
2023-02-23T11:02:48.949Z,8564
2023-02-23T11:04:05.399Z,8636
2023-02-23T11:05:20.612Z,8660
2023-02-23T11:06:28.000Z,8916
2023-02-23T11:07:52.025Z,8896
2023-02-23T11:09:08.221Z,8964
2023-02-23T11:10:16.000Z,8924
2023-02-23T11:11:33.000Z,8704
2023-02-23T11:12:56.555Z,8524
2023-02-23T11:14:12.751Z,8780
2023-02-23T11:15:28.946Z,9280
2023-02-23T11:16:44.410Z,9416
2023-02-23T11:17:59.379Z,9340
2023-02-23T11:19:15.819Z,8252
2023-02-23T11:20:24.000Z,6588
2023-02-23T11:21:25.000Z,3716
2023-02-23T11:21:40.000Z,7148
2023-02-23T11:23:04.161Z,6016
2023-02-23T11:24:20.356Z,6020
2023-02-23T11:25:29.000Z,5476
2023-02-23T11:28:09.191Z,3360
2023-02-23T11:29:17.000Z,4476
2023-02-23T11:30:41.334Z,4896
2023-02-23T11:31:57.529Z,6204
2023-02-23T11:33:06.000Z,7624
2023-02-23T11:34:21.000Z,7316
2023-02-23T11:35:37.000Z,5924
2023-02-23T11:37:01.575Z,5740
2023-02-23T11:38:17.764Z,5580
2023-02-23T11:39:26.000Z,6612
2023-02-23T11:40:50.162Z,6780
2023-02-23T11:41:58.000Z,6504
2023-02-23T11:43:21.582Z,6368
2023-02-23T11:44:36.787Z,6124
2023-02-23T11:45:52.994Z,6392
2023-02-23T11:47:00.000Z,5108
2023-02-23T11:48:24.405Z,4184
2023-02-23T11:49:39.367Z,4856
2023-02-23T11:50:48.000Z,4796
2023-02-23T11:52:12.006Z,5416
2023-02-23T11:54:44.395Z,6780
2023-02-23T11:56:00.346Z,6380
2023-02-23T11:57:16.788Z,6352
2023-02-23T11:58:32.995Z,6364
2023-02-23T11:59:48.932Z,6464
2023-02-23T12:01:05.128Z,6392
2023-02-23T12:02:21.323Z,6736
2023-02-23T12:03:37.519Z,7184
2023-02-23T12:04:46.000Z,7584
2023-02-23T12:05:46.000Z,2100
2023-02-23T12:06:01.000Z,6792
2023-02-23T12:07:25.120Z,5876
2023-02-23T12:08:41.568Z,4028
2023-02-23T12:09:57.511Z,2368
2023-02-23T12:12:30.156Z,2004
2023-02-23T12:13:38.000Z,2028
2023-02-23T12:15:01.319Z,2020
2023-02-23T12:16:16.785Z,2352
2023-02-23T12:17:24.000Z,3036
2023-02-23T12:18:48.201Z,3344
2023-02-23T12:19:55.000Z,2952
2023-02-23T12:21:19.614Z,3880
2023-02-23T12:22:35.799Z,4192
2023-02-23T12:23:51.747Z,3480
2023-02-23T12:25:00.000Z,3272
2023-02-23T12:26:16.000Z,3288
2023-02-23T12:27:32.000Z,3836
2023-02-23T12:28:56.780Z,3776
2023-02-23T12:30:12.969Z,4644
2023-02-23T12:31:21.000Z,3656
2023-02-23T12:32:37.000Z,3472
2023-02-23T12:33:53.000Z,3392
2023-02-23T12:35:10.000Z,3368
2023-02-23T12:36:32.718Z,4900
2023-02-23T12:37:41.000Z,5196
2023-02-23T12:39:05.108Z,5548
2023-02-23T12:40:13.000Z,6492
2023-02-23T12:41:37.750Z,7096
2023-02-23T12:42:53.936Z,7164
2023-02-23T12:44:10.137Z,7080
2023-02-23T12:45:17.000Z,6576
2023-02-23T12:46:40.323Z,6904
2023-02-23T12:47:55.545Z,7696
2023-02-23T12:49:10.996Z,7840
2023-02-23T12:50:19.000Z,7720
2023-02-23T12:51:35.000Z,7288
2023-02-23T12:52:51.000Z,7404
2023-02-23T12:54:15.782Z,6632
2023-02-23T12:55:23.000Z,7256
2023-02-23T12:56:39.000Z,7028
2023-02-23T12:59:11.000Z,7800
2023-02-23T13:00:28.000Z,6256
2023-02-23T13:01:44.000Z,6308
2023-02-23T13:03:07.928Z,5312
2023-02-23T13:04:16.000Z,5484
2023-02-23T13:05:32.000Z,3920
2023-02-23T13:06:49.000Z,2624
2023-02-23T13:08:05.000Z,2984
2023-02-23T13:09:28.906Z,3248
2023-02-23T13:10:45.350Z,3168
2023-02-23T13:11:52.000Z,2932
2023-02-23T13:13:16.510Z,2360
2023-02-23T13:14:32.705Z,2868
2023-02-23T13:15:40.000Z,3096
2023-02-23T13:16:40.000Z,1608
2023-02-23T13:17:04.394Z,2680
2023-02-23T13:18:11.000Z,1944
2023-02-23T13:19:28.000Z,1660
2023-02-23T13:20:51.726Z,1372
2023-02-23T13:23:24.363Z,1448
2023-02-23T13:24:40.315Z,1784
2023-02-23T13:25:49.000Z,1488
2023-02-23T13:27:12.961Z,1724
2023-02-23T13:28:21.000Z,1408
2023-02-23T13:29:45.098Z,1056
2023-02-23T13:31:01.537Z,1196
2023-02-23T13:32:17.490Z,1456
2023-02-23T13:33:26.000Z,1156
2023-02-23T13:34:42.000Z,968
2023-02-23T13:35:57.000Z,996
2023-02-23T13:37:13.000Z,884
2023-02-23T13:38:37.485Z,812
2023-02-23T13:39:46.000Z,908
2023-02-23T13:41:02.000Z,1120
2023-02-23T13:42:25.359Z,1436
2023-02-23T13:43:32.000Z,1404
2023-02-23T13:44:49.000Z,1960
2023-02-23T13:46:11.730Z,2268
2023-02-23T13:47:27.926Z,1816
2023-02-23T13:48:35.000Z,1732
2023-02-23T13:49:58.602Z,1824
2023-02-23T13:51:14.806Z,1880
2023-02-23T13:52:30.752Z,1824
2023-02-23T13:53:47.197Z,1792
2023-02-23T13:55:03.394Z,1560
2023-02-23T13:56:19.583Z,1272
2023-02-23T13:57:28.000Z,1468
2023-02-23T13:58:51.979Z,1736
2023-02-23T14:00:07.926Z,2044
2023-02-23T14:01:24.122Z,2240
2023-02-23T14:02:40.318Z,2124
2023-02-23T14:03:49.000Z,2184
2023-02-23T14:05:05.000Z,2056
2023-02-23T14:06:28.173Z,1948
2023-02-23T14:07:44.383Z,1768
2023-02-23T14:08:52.000Z,2040
2023-02-23T14:10:16.762Z,2252
2023-02-23T14:11:25.000Z,2296
2023-02-23T14:12:41.000Z,2252
2023-02-23T14:14:05.094Z,2180
2023-02-23T14:15:20.574Z,2136
2023-02-23T14:16:28.000Z,1932
2023-02-23T14:17:51.997Z,1552
2023-02-23T14:18:59.000Z,1424
2023-02-23T14:20:15.000Z,1300
2023-02-23T14:21:30.000Z,1464
2023-02-23T14:22:47.000Z,1784
2023-02-23T14:24:10.747Z,1764
2023-02-23T14:25:26.944Z,2468
2023-02-23T14:26:43.139Z,2784
2023-02-23T14:27:59.586Z,3072
2023-02-23T14:29:15.532Z,2900
2023-02-23T14:30:31.980Z,2516
2023-02-23T14:31:40.000Z,2756
2023-02-23T14:33:04.372Z,2876
2023-02-23T14:34:20.316Z,2552
2023-02-23T14:35:29.000Z,2380
2023-02-23T14:36:45.000Z,1892
2023-02-23T14:38:08.903Z,1920
2023-02-23T14:39:16.000Z,2016
2023-02-23T14:40:32.000Z,1856
2023-02-23T14:41:49.000Z,1696
2023-02-23T14:43:05.000Z,1536
2023-02-23T14:44:21.000Z,1408
2023-02-23T14:45:37.000Z,1252
2023-02-23T14:47:00.318Z,924
2023-02-23T14:48:16.765Z,1012
2023-02-23T14:49:24.000Z,976
2023-02-23T14:50:48.170Z,904
2023-02-23T14:52:04.117Z,944
2023-02-23T14:53:11.000Z,912
2023-02-23T14:54:34.796Z,904
2023-02-23T14:55:50.747Z,876
2023-02-23T14:57:06.943Z,860
2023-02-23T14:58:15.000Z,820
2023-02-23T14:59:39.334Z,776
2023-02-23T15:00:48.000Z,816
2023-02-23T15:02:04.000Z,852
2023-02-23T15:03:27.922Z,832
2023-02-23T15:04:36.000Z,860
2023-02-23T15:05:52.000Z,844
2023-02-23T15:07:16.755Z,908
2023-02-23T15:08:32.952Z,1036
2023-02-23T15:09:41.000Z,1112
2023-02-23T15:11:04.113Z,1132
2023-02-23T15:12:12.000Z,1216
2023-02-23T15:14:52.944Z,1440
2023-02-23T15:16:08.896Z,1668
2023-02-23T15:17:25.091Z,1956
2023-02-23T15:18:33.000Z,2204
2023-02-23T15:19:57.731Z,2180
2023-02-23T15:21:06.000Z,2128
2023-02-23T15:22:29.874Z,2268
2023-02-23T15:23:38.000Z,2488
2023-02-23T15:25:02.266Z,2568
2023-02-23T15:26:18.462Z,2708
2023-02-23T15:27:33.674Z,2984
2023-02-23T15:28:42.000Z,2984
2023-02-23T15:30:06.065Z,2900
2023-02-23T15:31:14.000Z,2864
2023-02-23T15:32:38.457Z,2648
2023-02-23T15:33:46.000Z,2512
2023-02-23T15:35:01.000Z,2584
2023-02-23T15:36:17.000Z,2652
2023-02-23T15:37:41.533Z,2324
2023-02-23T15:38:50.000Z,1988
2023-02-23T15:40:12.701Z,2036
2023-02-23T15:41:28.897Z,2032
2023-02-23T15:42:44.108Z,2036
2023-02-23T15:43:52.000Z,1948
2023-02-23T15:45:16.500Z,1892
2023-02-23T15:46:32.696Z,1804
2023-02-23T15:47:48.891Z,1704
2023-02-23T15:49:05.328Z,1752
2023-02-23T15:50:21.529Z,1824
2023-02-23T15:51:30.000Z,1836
2023-02-23T15:52:53.676Z,1756
2023-02-23T15:54:10.123Z,1668
2023-02-23T15:55:26.067Z,1540
2023-02-23T15:56:42.263Z,1392
2023-02-23T15:57:58.704Z,1384
2023-02-23T15:59:13.919Z,1368
2023-02-23T16:00:29.867Z,1288
2023-02-23T16:01:46.312Z,1228
2023-02-23T16:03:02.258Z,1100
2023-02-23T16:04:18.454Z,924
2023-02-23T16:05:34.649Z,760
2023-02-23T16:06:43.000Z,600
2023-02-23T16:08:06.314Z,624
2023-02-23T16:09:21.532Z,552
2023-02-23T16:10:29.000Z,552
2023-02-23T16:11:51.714Z,540
2023-02-23T16:13:00.000Z,532
2023-02-23T16:14:01.000Z,316
2023-02-23T16:14:16.000Z,496
2023-02-23T16:15:17.000Z,276
2023-02-23T16:15:40.301Z,456
2023-02-23T16:16:56.746Z,396
2023-02-23T16:18:12.942Z,344
2023-02-23T16:22:01.283Z,248
2023-02-23T16:23:10.000Z,220
2023-02-23T16:24:33.920Z,212
2023-02-23T16:25:42.000Z,176
2023-02-23T16:27:06.066Z,160
2023-02-23T16:28:21.278Z,172
2023-02-23T16:29:37.474Z,176
2023-02-23T16:30:46.000Z,156
2023-02-23T16:32:02.000Z,132
2023-02-23T16:33:18.000Z,128
2023-02-23T16:34:42.514Z,124
2023-02-23T16:35:51.000Z,104
2023-02-23T16:37:07.000Z,100
2023-02-23T16:38:23.000Z,96
2023-02-23T16:39:39.000Z,88
2023-02-23T16:41:03.238Z,88
2023-02-23T16:42:19.434Z,88
2023-02-23T16:43:35.885Z,84
2023-02-23T16:44:43.000Z,76
2023-02-23T16:46:07.286Z,64
2023-02-23T16:47:23.480Z,60
2023-02-23T16:48:32.000Z,52
2023-02-23T16:49:55.625Z,48
2023-02-23T16:51:12.140Z,48
2023-02-23T16:52:20.000Z,40
2023-02-23T16:53:36.000Z,40
2023-02-23T16:54:53.000Z,32
2023-02-23T16:56:09.000Z,32
2023-02-23T16:57:33.052Z,28
2023-02-23T16:58:48.996Z,28
2023-02-23T17:00:05.192Z,24
2023-02-23T17:01:12.000Z,24
2023-02-23T17:02:36.848Z,24
2023-02-23T17:03:52.796Z,20
2023-02-23T17:05:08.992Z,16
2023-02-23T17:06:25.188Z,16
2023-02-23T17:07:41.384Z,16
2023-02-23T17:08:50.000Z,16
2023-02-23T17:09:50.000Z,16
2023-02-23T17:10:05.000Z,16
2023-02-23T17:11:29.246Z,16
2023-02-23T17:12:45.189Z,12
2023-02-23T17:13:53.000Z,16
2023-02-23T17:16:26.000Z,12
2023-02-23T17:17:42.000Z,12
2023-02-23T17:19:06.168Z,12
2023-02-23T17:20:22.626Z,12
2023-02-23T17:21:31.000Z,8
2023-02-23T17:22:54.756Z,12
2023-02-23T17:24:10.951Z,8
2023-02-23T17:25:27.392Z,8
2023-02-23T17:26:43.343Z,8
2023-02-23T17:27:58.555Z,8
2023-02-23T17:29:07.000Z,8
2023-02-23T17:30:23.000Z,8
2023-02-23T17:31:47.392Z,8
2023-02-23T17:33:03.338Z,8
2023-02-23T17:34:19.779Z,8
2023-02-23T17:35:35.984Z,8
2023-02-23T17:36:50.951Z,8
2023-02-23T17:38:06.408Z,8
2023-02-23T17:39:22.606Z,8
2023-02-23T17:40:37.823Z,8
2023-02-23T17:41:45.000Z,8
2023-02-23T17:43:08.990Z,8
2023-02-23T17:44:17.000Z,8